createdAt,value
2016-05-21T00:00:37.779Z,965.6
2016-05-21T00:01:37.781Z,965.61
2016-05-21T00:02:37.784Z,965.6
2016-05-21T00:03:37.803Z,965.6
2016-05-21T00:04:37.821Z,965.59
2016-05-21T00:05:37.824Z,965.61
2016-05-21T00:06:37.826Z,965.65
2016-05-21T00:07:37.845Z,965.59
2016-05-21T00:08:37.863Z,965.59
2016-05-21T00:09:37.866Z,965.58
2016-05-21T00:10:37.868Z,965.58
2016-05-21T00:11:37.898Z,965.6
2016-05-21T00:12:37.917Z,965.57
2016-05-21T00:13:37.935Z,965.6
2016-05-21T00:14:37.969Z,965.61
2016-05-21T00:15:37.988Z,965.6
2016-05-21T00:16:37.999Z,965.58
2016-05-21T00:17:38.023Z,965.59
2016-05-21T00:18:38.032Z,965.57
2016-05-21T00:19:38.055Z,965.62
2016-05-21T00:20:38.063Z,965.62
2016-05-21T00:21:38.085Z,965.61
2016-05-21T00:22:38.091Z,965.64
2016-05-21T00:23:38.111Z,965.62
2016-05-21T00:24:38.117Z,965.61
2016-05-21T00:25:38.136Z,965.61
2016-05-21T00:26:38.140Z,965.63
2016-05-21T00:27:38.144Z,965.59
2016-05-21T00:28:38.163Z,965.6
2016-05-21T00:29:38.166Z,965.59
2016-05-21T00:30:38.184Z,965.59
2016-05-21T00:31:38.188Z,965.58
2016-05-21T00:32:38.207Z,965.55
2016-05-21T00:33:38.209Z,965.53
2016-05-21T00:34:38.212Z,965.53
2016-05-21T00:35:38.231Z,965.54
2016-05-21T00:36:38.233Z,965.55
2016-05-21T00:37:38.251Z,965.53
2016-05-21T00:38:38.254Z,965.56
2016-05-21T00:39:38.256Z,965.55
2016-05-21T00:40:38.275Z,965.53
2016-05-21T00:41:38.294Z,965.53
2016-05-21T00:42:38.296Z,965.52
2016-05-21T00:43:38.299Z,965.49
2016-05-21T00:44:38.316Z,965.51
2016-05-21T00:45:38.320Z,965.52
2016-05-21T00:46:38.323Z,965.51
2016-05-21T00:47:38.341Z,965.5
2016-05-21T00:48:38.344Z,965.49
2016-05-21T00:49:38.361Z,965.51
2016-05-21T00:50:38.364Z,965.5
2016-05-21T00:51:38.383Z,965.51
2016-05-21T00:52:38.385Z,965.46
2016-05-21T00:53:38.388Z,965.48
2016-05-21T00:54:38.406Z,965.47
2016-05-21T00:55:38.409Z,965.5
2016-05-21T00:56:38.427Z,965.45
2016-05-21T00:57:38.429Z,965.49
2016-05-21T00:58:38.432Z,965.5
2016-05-21T00:59:38.451Z,965.47
2016-05-21T01:00:38.454Z,965.49
2016-05-21T01:01:38.473Z,965.53
2016-05-21T01:02:38.475Z,965.55
2016-05-21T01:03:38.493Z,965.51
2016-05-21T01:04:38.496Z,965.51
2016-05-21T01:05:38.498Z,965.49
2016-05-21T01:06:38.517Z,965.51
2016-05-21T01:07:38.520Z,965.52
2016-05-21T01:08:38.537Z,965.56
2016-05-21T01:09:38.540Z,965.58
2016-05-21T01:10:38.558Z,965.56
2016-05-21T01:11:38.561Z,965.58
2016-05-21T01:12:38.580Z,965.56
2016-05-21T01:13:38.597Z,965.54
2016-05-21T01:14:38.586Z,965.56
2016-05-21T01:15:38.603Z,965.6
2016-05-21T01:16:38.606Z,965.59
2016-05-21T01:17:38.625Z,965.6
2016-05-21T01:18:38.627Z,965.61
2016-05-21T01:19:38.646Z,965.64
2016-05-21T01:20:38.649Z,965.58
2016-05-21T01:21:38.666Z,965.57
2016-05-21T01:22:38.669Z,965.53
2016-05-21T01:23:38.672Z,965.56
2016-05-21T01:24:38.721Z,965.54
2016-05-21T01:25:38.693Z,965.53
2016-05-21T01:26:38.695Z,965.51
2016-05-21T01:27:38.713Z,965.56
2016-05-21T01:28:38.716Z,965.53
2016-05-21T01:29:38.719Z,965.53
2016-05-21T01:30:38.738Z,965.52
2016-05-21T01:31:38.756Z,965.53
2016-05-21T01:32:38.759Z,965.53
2016-05-21T01:33:38.762Z,965.52
2016-05-21T01:34:38.779Z,965.54
2016-05-21T01:35:38.782Z,965.52
2016-05-21T01:36:38.785Z,965.52
2016-05-21T01:37:38.803Z,965.5
2016-05-21T01:38:38.822Z,965.5
2016-05-21T01:39:38.825Z,965.52
2016-05-21T01:40:38.827Z,965.48
2016-05-21T01:41:39.189Z,965.46
2016-05-21T01:42:38.848Z,965.48
2016-05-21T01:43:38.867Z,965.46
2016-05-21T01:44:38.885Z,965.42
2016-05-21T01:45:38.872Z,965.44
2016-05-21T01:46:38.890Z,965.43
2016-05-21T01:47:38.892Z,965.42
2016-05-21T01:48:38.895Z,965.45
2016-05-21T01:49:38.914Z,965.4
2016-05-21T01:50:38.916Z,965.36
2016-05-21T01:51:38.935Z,965.4
2016-05-21T01:52:38.937Z,965.39
2016-05-21T01:53:38.940Z,965.41
2016-05-21T01:54:38.958Z,965.39
2016-05-21T01:55:38.961Z,965.38
2016-05-21T01:56:38.980Z,965.38
2016-05-21T01:57:38.982Z,965.39
2016-05-21T01:58:39.001Z,965.42
2016-05-21T01:59:39.004Z,965.37
2016-05-21T02:00:39.021Z,965.39
2016-05-21T02:01:39.024Z,965.37
2016-05-21T02:02:39.042Z,965.37
2016-05-21T02:03:39.045Z,965.41
2016-05-21T02:04:39.063Z,965.41
2016-05-21T02:05:39.065Z,965.42
2016-05-21T02:06:39.068Z,965.43
2016-05-21T02:07:39.071Z,965.46
2016-05-21T02:08:39.089Z,965.46
2016-05-21T02:09:39.092Z,965.43
2016-05-21T02:10:39.111Z,965.47
2016-05-21T02:11:39.114Z,965.48
2016-05-21T02:12:39.132Z,965.45
2016-05-21T02:13:39.134Z,965.42
2016-05-21T02:14:39.153Z,965.43
2016-05-21T02:15:39.156Z,965.46
2016-05-21T02:16:39.174Z,965.42
2016-05-21T02:17:39.177Z,965.43
2016-05-21T02:18:39.179Z,965.44
2016-05-21T02:19:39.197Z,965.43
2016-05-21T02:20:39.200Z,965.41
2016-05-21T02:21:39.203Z,965.46
2016-05-21T02:22:39.221Z,965.45
2016-05-21T02:23:39.224Z,965.49
2016-05-21T02:24:39.227Z,965.45
2016-05-21T02:25:39.245Z,965.46
2016-05-21T02:26:39.247Z,965.48
2016-05-21T02:27:39.265Z,965.53
2016-05-21T02:28:39.269Z,965.48
2016-05-21T02:29:39.287Z,965.53
2016-05-21T02:30:39.290Z,965.52
2016-05-21T02:31:39.308Z,965.49
2016-05-21T02:32:39.310Z,965.46
2016-05-21T02:33:39.329Z,965.53
2016-05-21T02:34:39.331Z,965.46
2016-05-21T02:35:39.335Z,965.46
2016-05-21T02:36:39.352Z,965.49
2016-05-21T02:37:39.356Z,965.52
2016-05-21T02:38:39.374Z,965.48
2016-05-21T02:39:39.376Z,965.52
2016-05-21T02:40:39.395Z,965.5
2016-05-21T02:41:39.569Z,965.48
2016-05-21T02:42:39.400Z,965.5
2016-05-21T02:43:39.418Z,965.5
2016-05-21T02:44:39.420Z,965.5
2016-05-21T02:45:39.439Z,965.51
2016-05-21T02:46:39.441Z,965.5
2016-05-21T02:47:39.444Z,965.49
2016-05-21T02:48:39.463Z,965.5
2016-05-21T02:49:39.466Z,965.5
2016-05-21T02:50:39.484Z,965.51
2016-05-21T02:51:39.596Z,965.55
2016-05-21T02:52:39.724Z,965.54
2016-05-21T02:53:39.508Z,965.55
2016-05-21T02:54:39.526Z,965.54
2016-05-21T02:55:39.529Z,965.61
2016-05-21T02:56:39.532Z,965.58
2016-05-21T02:57:39.534Z,965.6
2016-05-21T02:58:39.552Z,965.61
2016-05-21T02:59:39.555Z,965.61
2016-05-21T03:00:39.558Z,965.64
2016-05-21T03:01:39.576Z,965.65
2016-05-21T03:02:39.593Z,965.6
2016-05-21T03:03:39.597Z,965.64
2016-05-21T03:04:39.599Z,965.6
2016-05-21T03:05:39.618Z,965.64
2016-05-21T03:06:39.620Z,965.58
2016-05-21T03:07:39.639Z,965.6
2016-05-21T03:08:39.642Z,965.58
2016-05-21T03:09:39.660Z,965.61
2016-05-21T03:10:39.662Z,965.59
2016-05-21T03:11:39.665Z,965.58
2016-05-21T03:12:39.668Z,965.64
2016-05-21T03:13:39.686Z,965.6
2016-05-21T03:14:39.689Z,965.62
2016-05-21T03:15:39.708Z,965.63
2016-05-21T03:16:39.710Z,965.64
2016-05-21T03:17:39.728Z,965.61
2016-05-21T03:18:39.731Z,965.61
2016-05-21T03:19:39.749Z,965.61
2016-05-21T03:20:39.753Z,965.61
2016-05-21T03:21:39.755Z,965.6
2016-05-21T03:22:39.773Z,965.64
2016-05-21T03:23:39.776Z,965.61
2016-05-21T03:24:39.794Z,965.63
2016-05-21T03:25:39.797Z,965.61
2016-05-21T03:26:39.830Z,965.64
2016-05-21T03:27:39.819Z,965.61
2016-05-21T03:28:39.821Z,965.65
2016-05-21T03:29:39.838Z,965.61
2016-05-21T03:30:39.857Z,965.61
2016-05-21T03:31:39.860Z,965.56
2016-05-21T03:32:39.862Z,965.65
2016-05-21T03:33:39.865Z,965.6
2016-05-21T03:34:39.884Z,965.63
2016-05-21T03:35:39.887Z,965.6
2016-05-21T03:36:39.904Z,965.59
2016-05-21T03:37:39.907Z,965.61
2016-05-21T03:38:39.910Z,965.58
2016-05-21T03:39:39.928Z,965.57
2016-05-21T03:40:39.931Z,965.55
2016-05-21T03:41:39.949Z,965.52
2016-05-21T03:42:39.951Z,965.55
2016-05-21T03:43:39.970Z,965.54
2016-05-21T03:44:39.973Z,965.54
2016-05-21T03:45:39.991Z,965.53
2016-05-21T03:46:39.994Z,965.53
2016-05-21T03:47:40.012Z,965.52
2016-05-21T03:48:40.000Z,965.55
2016-05-21T03:49:40.017Z,965.51
2016-05-21T03:50:40.020Z,965.56
2016-05-21T03:51:40.039Z,965.54
2016-05-21T03:52:40.041Z,965.52
2016-05-21T03:53:40.060Z,965.55
2016-05-21T03:54:40.063Z,965.56
2016-05-21T03:55:40.080Z,965.55
2016-05-21T03:56:40.083Z,965.5
2016-05-21T03:57:40.086Z,965.55
2016-05-21T03:58:40.105Z,965.52
2016-05-21T03:59:40.107Z,965.53
2016-05-21T04:00:40.110Z,965.48
2016-05-21T04:01:40.127Z,965.52
2016-05-21T04:02:40.130Z,965.5
2016-05-21T04:03:40.149Z,965.49
2016-05-21T04:04:40.152Z,965.48
2016-05-21T04:05:40.170Z,965.52
2016-05-21T04:06:40.173Z,965.48
2016-05-21T04:07:40.191Z,965.48
2016-05-21T04:08:40.193Z,965.46
2016-05-21T04:09:40.196Z,965.47
2016-05-21T04:10:40.215Z,965.47
2016-05-21T04:11:40.233Z,965.47
2016-05-21T04:12:40.220Z,965.47
2016-05-21T04:13:40.254Z,965.44
2016-05-21T04:14:40.257Z,965.42
2016-05-21T04:15:40.260Z,965.42
2016-05-21T04:16:40.262Z,965.46
2016-05-21T04:17:40.265Z,965.4
2016-05-21T04:18:40.283Z,965.41
2016-05-21T04:19:40.301Z,965.42
2016-05-21T04:20:40.304Z,965.37
2016-05-21T04:21:40.307Z,965.4
2016-05-21T04:22:40.325Z,965.43
2016-05-21T04:23:40.328Z,965.4
2016-05-21T04:24:40.330Z,965.38
2016-05-21T04:25:40.350Z,965.39
2016-05-21T04:26:40.351Z,965.42
2016-05-21T04:27:40.354Z,965.39
2016-05-21T04:28:40.372Z,965.38
2016-05-21T04:29:40.375Z,965.44
2016-05-21T04:30:40.394Z,965.4
2016-05-21T04:31:40.412Z,965.39
2016-05-21T04:32:40.415Z,965.43
2016-05-21T04:33:40.417Z,965.4
2016-05-21T04:34:40.435Z,965.44
2016-05-21T04:35:40.438Z,965.45
2016-05-21T04:36:40.440Z,965.43
2016-05-21T04:37:40.460Z,965.45
2016-05-21T04:38:40.462Z,965.45
2016-05-21T04:39:40.480Z,965.42
2016-05-21T04:40:40.483Z,965.46
2016-05-21T04:41:40.485Z,965.47
2016-05-21T04:42:40.504Z,965.47
2016-05-21T04:43:40.506Z,965.45
2016-05-21T04:44:40.509Z,965.48
2016-05-21T04:45:40.528Z,965.47
2016-05-21T04:46:40.531Z,965.45
2016-05-21T04:47:40.548Z,965.48
2016-05-21T04:48:40.551Z,965.44
2016-05-21T04:49:40.570Z,965.43
2016-05-21T04:50:40.573Z,965.43
2016-05-21T04:51:40.591Z,965.4
2016-05-21T04:52:40.594Z,965.39
2016-05-21T04:53:40.596Z,965.38
2016-05-21T04:54:40.614Z,965.35
2016-05-21T04:55:40.633Z,965.44
2016-05-21T04:56:40.636Z,965.42
2016-05-21T04:57:40.638Z,965.42
2016-05-21T04:58:40.640Z,965.36
2016-05-21T04:59:40.659Z,965.4
2016-05-21T05:00:40.661Z,965.42
2016-05-21T05:01:40.680Z,965.39
2016-05-21T05:02:40.682Z,965.36
2016-05-21T05:03:40.685Z,965.36
2016-05-21T05:04:40.704Z,965.37
2016-05-21T05:05:40.707Z,965.36
2016-05-21T05:06:40.724Z,965.34
2016-05-21T05:07:40.727Z,965.37
2016-05-21T05:08:40.745Z,965.34
2016-05-21T05:09:40.749Z,965.34
2016-05-21T05:10:40.751Z,965.33
2016-05-21T05:11:40.770Z,965.32
2016-05-21T05:12:40.773Z,965.35
2016-05-21T05:13:40.790Z,965.28
2016-05-21T05:14:40.793Z,965.27
2016-05-21T05:15:40.796Z,965.28
2016-05-21T05:16:40.815Z,965.28
2016-05-21T05:17:40.817Z,965.27
2016-05-21T05:18:40.835Z,965.29
2016-05-21T05:19:40.853Z,965.29
2016-05-21T05:20:40.856Z,965.3
2016-05-21T05:21:40.859Z,965.33
2016-05-21T05:22:40.877Z,965.3
2016-05-21T05:23:40.880Z,965.3
2016-05-21T05:24:40.883Z,965.34
2016-05-21T05:25:40.900Z,965.33
2016-05-21T05:26:40.903Z,965.38
2016-05-21T05:27:40.906Z,965.34
2016-05-21T05:28:40.924Z,965.34
2016-05-21T05:29:40.928Z,965.34
2016-05-21T05:30:40.930Z,965.39
2016-05-21T05:31:40.948Z,965.35
2016-05-21T05:32:40.951Z,965.4
2016-05-21T05:33:40.969Z,965.4
2016-05-21T05:34:40.972Z,965.37
2016-05-21T05:35:40.990Z,965.4
2016-05-21T05:36:40.994Z,965.37
2016-05-21T05:37:41.010Z,965.34
2016-05-21T05:38:41.013Z,965.33
2016-05-21T05:39:41.032Z,965.34
2016-05-21T05:40:41.035Z,965.32
2016-05-21T05:41:41.053Z,965.34
2016-05-21T05:42:41.040Z,965.34
2016-05-21T05:43:41.059Z,965.32
2016-05-21T05:44:41.062Z,965.3
2016-05-21T05:45:41.079Z,965.31
2016-05-21T05:46:41.082Z,965.29
2016-05-21T05:47:41.100Z,965.3
2016-05-21T05:48:41.103Z,965.3
2016-05-21T05:49:41.106Z,965.28
2016-05-21T05:50:41.125Z,965.32
2016-05-21T05:51:41.142Z,965.31
2016-05-21T05:52:41.145Z,965.28
2016-05-21T05:53:41.148Z,965.32
2016-05-21T05:54:41.166Z,965.31
2016-05-21T05:55:41.169Z,965.35
2016-05-21T05:56:41.172Z,965.35
2016-05-21T05:57:41.190Z,965.35
2016-05-21T05:58:41.208Z,965.35
2016-05-21T05:59:41.211Z,965.33
2016-05-21T06:00:41.213Z,965.33
2016-05-21T06:01:41.232Z,965.34
2016-05-21T06:02:41.235Z,965.34
2016-05-21T06:03:41.253Z,965.3
2016-05-21T06:04:41.256Z,965.3
2016-05-21T06:05:41.258Z,965.3
2016-05-21T06:06:41.277Z,965.28
2016-05-21T06:07:41.279Z,965.3
2016-05-21T06:08:41.282Z,965.34
2016-05-21T06:09:41.301Z,965.28
2016-05-21T06:10:41.304Z,965.3
2016-05-21T06:11:41.321Z,965.28
2016-05-21T06:12:41.340Z,965.33
2016-05-21T06:13:41.343Z,965.32
2016-05-21T06:14:41.345Z,965.31
2016-05-21T06:15:41.348Z,965.33
2016-05-21T06:16:41.366Z,965.33
2016-05-21T06:17:41.368Z,965.32
2016-05-21T06:18:41.387Z,965.31
2016-05-21T06:19:41.390Z,965.33
2016-05-21T06:20:41.392Z,965.33
2016-05-21T06:21:41.411Z,965.35
2016-05-21T06:22:41.414Z,965.36
2016-05-21T06:23:41.432Z,965.34
2016-05-21T06:24:41.434Z,965.36
2016-05-21T06:25:41.453Z,965.38
2016-05-21T06:26:41.456Z,965.35
2016-05-21T06:27:41.474Z,965.38
2016-05-21T06:28:41.477Z,965.39
2016-05-21T06:29:41.495Z,965.38
2016-05-21T06:30:41.497Z,965.36
2016-05-21T06:31:41.500Z,965.4
2016-05-21T06:32:41.518Z,965.38
2016-05-21T06:33:41.521Z,965.35
2016-05-21T06:34:41.539Z,965.37
2016-05-21T06:35:41.542Z,965.36
2016-05-21T06:36:41.561Z,965.39
2016-05-21T06:37:41.563Z,965.36
2016-05-21T06:38:41.566Z,965.4
2016-05-21T06:39:41.585Z,965.39
2016-05-21T06:40:41.588Z,965.36
2016-05-21T06:41:41.604Z,965.38
2016-05-21T06:42:41.608Z,965.4
2016-05-21T06:43:41.626Z,965.38
2016-05-21T06:44:41.629Z,965.36
2016-05-21T06:45:41.631Z,965.34
2016-05-21T06:46:41.650Z,965.37
2016-05-21T06:47:41.653Z,965.36
2016-05-21T06:48:41.671Z,965.36
2016-05-21T06:49:41.674Z,965.35
2016-05-21T06:50:41.692Z,965.4
2016-05-21T06:51:41.695Z,965.39
2016-05-21T06:52:41.697Z,965.35
2016-05-21T06:53:41.715Z,965.37
2016-05-21T06:54:41.718Z,965.34
2016-05-21T06:55:41.721Z,965.37
2016-05-21T06:56:41.739Z,965.36
2016-05-21T06:57:41.742Z,965.31
2016-05-21T06:58:41.761Z,965.3
2016-05-21T06:59:41.763Z,965.32
2016-05-21T07:00:41.781Z,965.31
2016-05-21T07:01:41.800Z,965.33
2016-05-21T07:02:41.802Z,965.3
2016-05-21T07:03:41.805Z,965.33
2016-05-21T07:04:41.824Z,965.33
2016-05-21T07:05:41.842Z,965.31
2016-05-21T07:06:41.844Z,965.3
2016-05-21T07:07:41.847Z,965.3
2016-05-21T07:08:41.850Z,965.32
2016-05-21T07:09:41.868Z,965.3
2016-05-21T07:10:41.870Z,965.31
2016-05-21T07:11:41.874Z,965.28
2016-05-21T07:12:41.891Z,965.3
2016-05-21T07:13:41.894Z,965.28
2016-05-21T07:14:41.913Z,965.33
2016-05-21T07:15:41.915Z,965.35
2016-05-21T07:16:41.934Z,965.31
2016-05-21T07:17:41.937Z,965.37
2016-05-21T07:18:41.940Z,965.33
2016-05-21T07:19:41.957Z,965.32
2016-05-21T07:20:41.960Z,965.41
2016-05-21T07:21:41.979Z,965.35
2016-05-21T07:22:41.981Z,965.36
2016-05-21T07:23:42.000Z,965.39
2016-05-21T07:24:42.002Z,965.35
2016-05-21T07:25:42.021Z,965.34
2016-05-21T07:26:42.023Z,965.32
2016-05-21T07:27:42.041Z,965.33
2016-05-21T07:28:42.045Z,965.31
2016-05-21T07:29:42.047Z,965.26
2016-05-21T07:30:42.065Z,965.27
2016-05-21T07:31:42.068Z,965.27
2016-05-21T07:32:42.086Z,965.24
2016-05-21T07:33:42.089Z,965.21
2016-05-21T07:34:42.091Z,965.22
2016-05-21T07:35:42.110Z,965.24
2016-05-21T07:36:42.113Z,965.19
2016-05-21T07:37:42.130Z,965.21
2016-05-21T07:38:42.133Z,965.23
2016-05-21T07:39:42.152Z,965.22
2016-05-21T07:40:42.155Z,965.19
2016-05-21T07:41:42.501Z,965.16
2016-05-21T07:42:42.176Z,965.18
2016-05-21T07:43:42.179Z,965.14
2016-05-21T07:44:42.196Z,965.12
2016-05-21T07:45:42.199Z,965.14
2016-05-21T07:46:42.202Z,965.15
2016-05-21T07:47:42.221Z,965.15
2016-05-21T07:48:42.238Z,965.14
2016-05-21T07:49:42.241Z,965.15
2016-05-21T07:50:42.260Z,965.15
2016-05-21T07:51:42.262Z,965.21
2016-05-21T07:52:42.280Z,965.19
2016-05-21T07:53:42.284Z,965.2
2016-05-21T07:54:42.286Z,965.2
2016-05-21T07:55:42.304Z,965.16
2016-05-21T07:56:42.307Z,965.2
2016-05-21T07:57:42.325Z,965.22
2016-05-21T07:58:42.328Z,965.2
2016-05-21T07:59:42.331Z,965.22
2016-05-21T08:00:42.350Z,965.19
2016-05-21T08:01:42.352Z,965.22
2016-05-21T08:02:42.370Z,965.22
2016-05-21T08:03:42.372Z,965.23
2016-05-21T08:04:42.375Z,965.2
2016-05-21T08:05:42.394Z,965.2
2016-05-21T08:06:42.412Z,965.21
2016-05-21T08:07:42.414Z,965.22
2016-05-21T08:08:42.417Z,965.21
2016-05-21T08:09:42.436Z,965.23
2016-05-21T08:10:42.438Z,965.19
2016-05-21T08:11:42.457Z,965.17
2016-05-21T08:12:42.475Z,965.18
2016-05-21T08:13:42.477Z,965.18
2016-05-21T08:14:42.481Z,965.15
2016-05-21T08:15:42.498Z,965.17
2016-05-21T08:16:42.502Z,965.13
2016-05-21T08:17:42.504Z,965.16
2016-05-21T08:18:42.523Z,965.11
2016-05-21T08:19:42.526Z,965.16
2016-05-21T08:20:42.543Z,965.21
2016-05-21T08:21:42.546Z,965.17
2016-05-21T08:22:42.549Z,965.12
2016-05-21T08:23:42.567Z,965.18
2016-05-21T08:24:42.570Z,965.2
2016-05-21T08:25:42.588Z,965.21
2016-05-21T08:26:42.590Z,965.19
2016-05-21T08:27:42.609Z,965.19
2016-05-21T08:28:42.612Z,965.21
2016-05-21T08:29:42.631Z,965.19
2016-05-21T08:30:42.633Z,965.15
2016-05-21T08:31:42.636Z,965.14
2016-05-21T08:32:42.669Z,965.15
2016-05-21T08:33:42.656Z,965.1
2016-05-21T08:34:42.722Z,965.1
2016-05-21T08:35:42.694Z,965.16
2016-05-21T08:36:42.697Z,965.09
2016-05-21T08:37:42.699Z,965.13
2016-05-21T08:38:42.717Z,965.08
2016-05-21T08:39:42.719Z,965.12
2016-05-21T08:40:42.738Z,965.13
2016-05-21T08:41:42.741Z,965.08
2016-05-21T08:42:42.758Z,965.05
2016-05-21T08:43:42.761Z,965.06
2016-05-21T08:44:42.764Z,965.02
2016-05-21T08:45:42.782Z,965.04
2016-05-21T08:46:42.785Z,965.05
2016-05-21T08:47:42.804Z,965.04
2016-05-21T08:48:42.807Z,965.05
2016-05-21T08:49:42.809Z,965.1
2016-05-21T08:50:42.827Z,965.05
2016-05-21T08:51:42.829Z,965.05
2016-05-21T08:52:42.848Z,965.03
2016-05-21T08:53:42.851Z,965.05
2016-05-21T08:54:42.870Z,965.08
2016-05-21T08:55:42.872Z,965.01
2016-05-21T08:56:42.921Z,965.04
2016-05-21T08:57:42.893Z,965.03
2016-05-21T08:58:42.912Z,965.05
2016-05-21T08:59:42.914Z,965.07
2016-05-21T09:00:42.932Z,965.02
2016-05-21T09:01:42.934Z,965.04
2016-05-21T09:02:42.954Z,965.02
2016-05-21T09:03:42.956Z,965.02
2016-05-21T09:04:42.958Z,965.06
2016-05-21T09:05:42.978Z,965.05
2016-05-21T09:06:42.980Z,965.05
2016-05-21T09:07:42.983Z,965.08
2016-05-21T09:08:43.001Z,965.05
2016-05-21T09:09:43.020Z,965.06
2016-05-21T09:10:43.022Z,965.09
2016-05-21T09:11:43.025Z,965.05
2016-05-21T09:12:43.043Z,965.08
2016-05-21T09:13:43.046Z,965.05
2016-05-21T09:14:43.064Z,965.07
2016-05-21T09:15:43.066Z,965.06
2016-05-21T09:16:43.085Z,965.09
2016-05-21T09:17:43.110Z,965.03
2016-05-21T09:18:43.134Z,965.02
2016-05-21T09:19:43.172Z,965.01
2016-05-21T09:20:43.196Z,964.99
2016-05-21T09:21:43.236Z,964.93
2016-05-21T09:22:43.245Z,964.95
2016-05-21T09:23:43.272Z,964.92
2016-05-21T09:24:43.298Z,964.95
2016-05-21T09:25:43.308Z,964.93
2016-05-21T09:26:43.318Z,964.92
2016-05-21T09:27:43.339Z,964.88
2016-05-21T09:28:43.344Z,964.94
2016-05-21T09:29:43.350Z,964.9
2016-05-21T09:30:43.371Z,964.88
2016-05-21T09:31:43.392Z,964.88
2016-05-21T09:32:43.396Z,964.89
2016-05-21T09:33:43.399Z,964.91
2016-05-21T09:34:43.420Z,964.87
2016-05-21T09:35:43.438Z,964.81
2016-05-21T09:36:43.442Z,964.81
2016-05-21T09:37:43.445Z,964.84
2016-05-21T09:38:43.465Z,964.82
2016-05-21T09:39:43.467Z,964.82
2016-05-21T09:40:43.486Z,964.83
2016-05-21T09:41:43.943Z,964.83
2016-05-21T09:42:43.493Z,964.85
2016-05-21T09:43:43.510Z,964.79
2016-05-21T09:44:43.512Z,964.75
2016-05-21T09:45:43.531Z,964.78
2016-05-21T09:46:43.534Z,964.75
2016-05-21T09:47:43.553Z,964.75
2016-05-21T09:48:43.556Z,964.71
2016-05-21T09:49:43.572Z,964.74
2016-05-21T09:50:43.592Z,964.74
2016-05-21T09:51:43.594Z,964.75
2016-05-21T09:52:43.597Z,964.75
2016-05-21T09:53:43.630Z,964.72
2016-05-21T09:54:43.617Z,964.71
2016-05-21T09:55:43.636Z,964.74
2016-05-21T09:56:43.638Z,964.72
2016-05-21T09:57:43.641Z,964.7
2016-05-21T09:58:43.660Z,964.66
2016-05-21T09:59:43.678Z,964.64
2016-05-21T10:00:43.680Z,964.65
2016-05-21T10:01:43.683Z,964.62
2016-05-21T10:02:43.702Z,964.64
2016-05-21T10:03:43.721Z,964.62
2016-05-21T10:04:43.723Z,964.6
2016-05-21T10:05:43.741Z,964.58
2016-05-21T10:06:43.744Z,964.59
2016-05-21T10:07:43.746Z,964.59
2016-05-21T10:08:43.765Z,964.53
2016-05-21T10:09:43.768Z,964.56
2016-05-21T10:10:43.785Z,964.53
2016-05-21T10:11:44.179Z,964.51
2016-05-21T10:12:43.807Z,964.47
2016-05-21T10:13:43.809Z,964.46
2016-05-21T10:14:43.828Z,964.45
2016-05-21T10:15:43.830Z,964.42
2016-05-21T10:16:43.834Z,964.42
2016-05-21T10:17:43.851Z,964.43
2016-05-21T10:18:43.853Z,964.46
2016-05-21T10:19:43.872Z,964.44
2016-05-21T10:20:43.892Z,964.43
2016-05-21T10:21:43.894Z,964.41
2016-05-21T10:22:43.912Z,964.4
2016-05-21T10:23:43.915Z,964.4
2016-05-21T10:24:43.933Z,964.35
2016-05-21T10:25:43.935Z,964.4
2016-05-21T10:26:43.938Z,964.38
2016-05-21T10:27:43.956Z,964.37
2016-05-21T10:28:43.959Z,964.37
2016-05-21T10:29:43.977Z,964.36
2016-05-21T10:30:43.980Z,964.36
2016-05-21T10:31:43.999Z,964.37
2016-05-21T10:32:44.002Z,964.35
2016-05-21T10:33:44.004Z,964.33
2016-05-21T10:34:44.022Z,964.33
2016-05-21T10:35:44.025Z,964.34
2016-05-21T10:36:44.044Z,964.35
2016-05-21T10:37:44.062Z,964.33
2016-05-21T10:38:44.065Z,964.36
2016-05-21T10:39:44.083Z,964.35
2016-05-21T10:40:44.085Z,964.34
2016-05-21T10:41:44.134Z,964.33
2016-05-21T10:42:44.106Z,964.35
2016-05-21T10:43:44.124Z,964.31
2016-05-21T10:44:44.127Z,964.25
2016-05-21T10:45:44.129Z,964.25
2016-05-21T10:46:44.148Z,964.28
2016-05-21T10:47:44.151Z,964.27
2016-05-21T10:48:44.170Z,964.25
2016-05-21T10:49:44.172Z,964.26
2016-05-21T10:50:44.190Z,964.27
2016-05-21T10:51:44.193Z,964.26
2016-05-21T10:52:44.228Z,964.26
2016-05-21T10:53:44.214Z,964.25
2016-05-21T10:54:44.233Z,964.23
2016-05-21T10:55:44.236Z,964.26
2016-05-21T10:56:44.239Z,964.2
2016-05-21T10:57:44.255Z,964.15
2016-05-21T10:58:44.275Z,964.15
2016-05-21T10:59:44.277Z,964.2
2016-05-21T11:00:44.280Z,964.22
2016-05-21T11:01:44.297Z,964.23
2016-05-21T11:02:44.301Z,964.22
2016-05-21T11:03:44.319Z,964.2
2016-05-21T11:04:44.321Z,964.21
2016-05-21T11:05:44.340Z,964.16
2016-05-21T11:06:44.343Z,964.16
2016-05-21T11:07:44.361Z,964.17
2016-05-21T11:08:44.363Z,964.2
2016-05-21T11:09:44.382Z,964.19
2016-05-21T11:10:44.385Z,964.2
2016-05-21T11:11:44.388Z,964.18
2016-05-21T11:12:44.406Z,964.17
2016-05-21T11:13:44.424Z,964.2
2016-05-21T11:14:44.427Z,964.15
2016-05-21T11:15:44.445Z,964.19
2016-05-21T11:16:44.463Z,964.15
2016-05-21T11:17:44.466Z,964.16
2016-05-21T11:18:44.468Z,964.17
2016-05-21T11:19:44.487Z,964.13
2016-05-21T11:20:44.490Z,964.1
2016-05-21T11:21:44.508Z,964.14
2016-05-21T11:22:44.511Z,964.1
2016-05-21T11:23:44.529Z,964.08
2016-05-21T11:24:44.531Z,964.09
2016-05-21T11:25:44.550Z,964.09
2016-05-21T11:26:44.552Z,964.03
2016-05-21T11:27:44.556Z,964.02
2016-05-21T11:28:44.574Z,964.04
2016-05-21T11:29:44.592Z,964.02
2016-05-21T11:30:44.594Z,963.98
2016-05-21T11:31:44.597Z,963.98
2016-05-21T11:32:44.631Z,964
2016-05-21T11:33:44.634Z,964.02
2016-05-21T11:34:44.636Z,964.02
2016-05-21T11:35:44.639Z,964.01
2016-05-21T11:36:44.658Z,963.97
2016-05-21T11:37:44.677Z,963.99
2016-05-21T11:38:44.679Z,963.94
2016-05-21T11:39:44.682Z,963.94
2016-05-21T11:40:44.699Z,963.95
2016-05-21T11:41:44.702Z,963.98
2016-05-21T11:42:44.720Z,963.95
2016-05-21T11:43:44.740Z,963.98
2016-05-21T11:44:44.742Z,963.93
2016-05-21T11:45:44.760Z,963.92
2016-05-21T11:46:44.763Z,963.92
2016-05-21T11:47:44.766Z,963.91
2016-05-21T11:48:44.784Z,963.88
2016-05-21T11:49:44.787Z,963.89
2016-05-21T11:50:44.804Z,963.9
2016-05-21T11:51:44.823Z,963.91
2016-05-21T11:52:44.826Z,963.93
2016-05-21T11:53:44.828Z,963.91
2016-05-21T11:54:44.847Z,963.88
2016-05-21T11:55:44.850Z,963.84
2016-05-21T11:56:44.868Z,963.84
2016-05-21T11:57:44.870Z,963.84
2016-05-21T11:58:44.889Z,963.85
2016-05-21T11:59:44.891Z,963.82
2016-05-21T12:00:44.910Z,963.82
2016-05-21T12:01:44.927Z,963.83
2016-05-21T12:02:44.931Z,963.82
2016-05-21T12:03:44.950Z,963.83
2016-05-21T12:04:44.952Z,963.79
2016-05-21T12:05:44.954Z,963.83
2016-05-21T12:06:44.972Z,963.83
2016-05-21T12:07:44.991Z,963.79
2016-05-21T12:08:44.994Z,963.81
2016-05-21T12:09:44.997Z,963.81
2016-05-21T12:10:45.015Z,963.76
2016-05-21T12:11:45.033Z,963.75
2016-05-21T12:12:45.035Z,963.73
2016-05-21T12:13:45.038Z,963.67
2016-05-21T12:14:45.057Z,963.71
2016-05-21T12:15:45.060Z,963.71
2016-05-21T12:16:45.109Z,963.68
2016-05-21T12:17:45.096Z,963.65
2016-05-21T12:18:45.099Z,963.7
2016-05-21T12:19:45.101Z,963.69
2016-05-21T12:20:45.120Z,963.66
2016-05-21T12:21:45.123Z,963.67
2016-05-21T12:22:45.140Z,963.63
2016-05-21T12:23:45.159Z,963.62
2016-05-21T12:24:45.162Z,963.64
2016-05-21T12:25:45.180Z,963.64
2016-05-21T12:26:45.183Z,963.63
2016-05-21T12:27:45.201Z,963.66
2016-05-21T12:28:45.203Z,963.69
2016-05-21T12:29:45.222Z,963.7
2016-05-21T12:30:45.225Z,963.67
2016-05-21T12:31:45.228Z,963.68